This is the latest recevied weather packets stored in our database for station/object K1RTA-1. If no packets are shown the sender has not sent any weather packets the latest 1 day(s).
| Time | Temp. | Humidity | Pressure | Rain* | Wind** | Luminosity | Snow |
|---|---|---|---|---|---|---|---|
| 1778003484 | 19.44° C | 67% | 1012.7 hPa | 0 mm | 3.58 m/s, 205° | - | - |
| 1778002584 | 19.44° C | 68% | 1013 hPa | 0 mm | 3.58 m/s, 213° | - | - |
| 1778001683 | 20° C | 67% | 1013 hPa | 0 mm | 3.13 m/s, 213° | - | - |
| 1778000784 | 20° C | 66% | 1012.8 hPa | 0 mm | 3.13 m/s, 203° | - | - |
| 1777999884 | 19.44° C | 70% | 1013.1 hPa | 0 mm | 4.02 m/s, 215° | - | - |
| 1777998985 | 18.33° C | 70% | 1013.3 hPa | 0 mm | 4.47 m/s, 206° | - | - |
| 1777998084 | 18.33° C | 70% | 1013 hPa | 0 mm | 4.47 m/s, 207° | - | - |
| 1777997183 | 18.33° C | 70% | 1013.2 hPa | 0 mm | 4.02 m/s, 206° | - | - |
| 1777996284 | 18.89° C | 71% | 1013.3 hPa | 0 mm | 3.58 m/s, 213° | - | - |
| 1777995383 | 18.89° C | 69% | 1013.3 hPa | 0 mm | 3.13 m/s, 208° | - | - |
| 1777994484 | 18.89° C | 72% | 1013.2 hPa | 0 mm | 3.13 m/s, 214° | - | - |
| 1777993584 | 18.33° C | 71% | 1013.4 hPa | 0 mm | 3.13 m/s, 202° | - | - |
| 1777992685 | 17.78° C | 73% | 1013.7 hPa | 0 mm | 3.58 m/s, 217° | - | - |
| 1777991784 | 17.78° C | 73% | 1013.8 hPa | 0 mm | 3.58 m/s, 223° | - | - |
| 1777990885 | 17.22° C | 75% | 1013.5 hPa | 0 mm | 4.47 m/s, 217° | - | - |
| 1777989985 | 17.22° C | 75% | 1013.6 hPa | 0 mm | 4.02 m/s, 215° | - | - |
| 1777989084 | 16.67° C | 75% | 1013.6 hPa | 0 mm | 4.47 m/s, 212° | - | - |
| 1777988184 | 16.67° C | 75% | 1013.6 hPa | 0 mm | 4.02 m/s, 220° | - | - |
| 1777987283 | 16.67° C | 75% | 1013.4 hPa | 0 mm | 3.13 m/s, 213° | - | - |
| 1777986385 | 16.67° C | 75% | 1013.4 hPa | 0 mm | 3.13 m/s, 216° | - | - |
| 1777985484 | 16.11° C | 77% | 1013.5 hPa | 0 mm | 3.13 m/s, 216° | - | - |
| 1777984587 | 15.56° C | 79% | 1013.4 hPa | 0 mm | 3.13 m/s, 213° | - | - |
| 1777983684 | 15° C | 80% | 1013.4 hPa | 0 mm | 3.58 m/s, 212° | - | - |
| 1777982784 | 14.44° C | 81% | 1013.2 hPa | 0 mm | 2.68 m/s, 216° | - | - |
| 1777981885 | 13.89° C | 82% | 1013.6 hPa | 0 mm | 3.13 m/s, 215° | - | - |
* Rain latest hour (hover to see other rain measurements)
** Current wind speed in m/s (hover to see current wind gust speed)